createdAt,value
2018-01-12T00:00:58.654Z,2.40
2018-01-12T00:03:26.189Z,2.30
2018-01-12T00:05:54.464Z,2.40
2018-01-12T00:08:22.756Z,2.40
2018-01-12T00:10:51.052Z,2.40
2018-01-12T00:13:18.587Z,2.40
2018-01-12T00:15:46.112Z,2.40
2018-01-12T00:18:13.643Z,2.40
2018-01-12T00:20:41.156Z,2.40
2018-01-12T00:23:09.460Z,2.40
2018-01-12T00:25:37.472Z,2.40
2018-01-12T00:28:05.007Z,2.40
2018-01-12T00:30:32.565Z,2.40
2018-01-12T00:33:00.846Z,2.40
2018-01-12T00:35:28.383Z,2.30
2018-01-12T00:37:55.905Z,2.40
2018-01-12T00:40:24.213Z,2.40
2018-01-12T00:42:51.725Z,2.30
2018-01-12T00:45:19.264Z,2.30
2018-01-12T00:47:46.789Z,2.30
2018-01-12T00:50:14.330Z,2.20
2018-01-12T00:52:41.844Z,2.30
2018-01-12T00:55:09.376Z,2.30
2018-01-12T00:57:36.909Z,2.30
2018-01-12T01:00:04.444Z,2.30
2018-01-12T01:02:32.725Z,2.30
2018-01-12T01:05:01.037Z,2.30
2018-01-12T01:07:29.331Z,2.30
2018-01-12T01:09:56.864Z,2.30
2018-01-12T01:12:24.380Z,2.30
2018-01-12T01:14:51.921Z,2.40
2018-01-12T01:17:19.501Z,2.40
2018-01-12T01:19:47.025Z,2.40
2018-01-12T01:22:14.561Z,2.40
2018-01-12T01:24:42.092Z,2.30
2018-01-12T01:27:10.378Z,2.30
2018-01-12T01:29:37.928Z,2.30
2018-01-12T01:32:05.461Z,2.30
2018-01-12T01:34:33.000Z,2.30
2018-01-12T01:37:00.534Z,2.30
2018-01-12T01:39:28.063Z,2.30
2018-01-12T01:41:56.341Z,2.30
2018-01-12T01:44:23.881Z,2.30
2018-01-12T01:46:52.169Z,2.30
2018-01-12T01:49:19.720Z,2.30
2018-01-12T01:51:48.004Z,2.30
2018-01-12T01:54:16.301Z,2.30
2018-01-12T01:56:43.833Z,2.20
2018-01-12T01:59:12.137Z,2.30
2018-01-12T02:01:39.661Z,2.20
2018-01-12T02:04:07.972Z,2.30
2018-01-12T02:06:35.491Z,2.20
2018-01-12T02:09:03.798Z,2.30
2018-01-12T02:11:31.321Z,2.30
2018-01-12T02:13:58.856Z,2.30
2018-01-12T02:16:26.372Z,2.30
2018-01-12T02:18:53.904Z,2.30
2018-01-12T02:21:22.197Z,2.30
2018-01-12T02:23:49.738Z,2.30
2018-01-12T02:26:18.048Z,2.40
2018-01-12T02:28:45.563Z,2.40
2018-01-12T02:31:13.107Z,2.40
2018-01-12T02:33:40.625Z,2.40
2018-01-12T02:36:08.170Z,2.40
2018-01-12T02:38:35.688Z,2.30
2018-01-12T02:41:03.229Z,2.30
2018-01-12T02:43:30.755Z,2.30
2018-01-12T02:45:58.301Z,2.30
2018-01-12T02:48:25.820Z,2.30
2018-01-12T02:50:53.359Z,2.30
2018-01-12T02:53:20.887Z,2.30
2018-01-12T02:55:48.444Z,2.30
2018-01-12T02:58:15.970Z,2.30
2018-01-12T03:00:44.272Z,2.30
2018-01-12T03:03:11.789Z,2.30
2018-01-12T03:05:40.114Z,2.30
2018-01-12T03:08:07.629Z,2.30
2018-01-12T03:10:35.164Z,2.30
2018-01-12T03:13:02.684Z,2.30
2018-01-12T03:15:30.213Z,2.30
2018-01-12T03:17:58.499Z,2.30
2018-01-12T03:20:26.800Z,2.30
2018-01-12T03:22:55.075Z,2.30
2018-01-12T03:25:22.618Z,2.30
2018-01-12T03:27:50.155Z,2.30
2018-01-12T03:30:18.462Z,2.30
2018-01-12T03:32:46.203Z,2.20
2018-01-12T03:35:14.509Z,2.30
2018-01-12T03:37:42.032Z,2.20
2018-01-12T03:40:10.332Z,2.30
2018-01-12T03:42:37.853Z,2.20
2018-01-12T03:45:06.167Z,2.30
2018-01-12T03:47:33.685Z,2.30
2018-01-12T03:50:01.996Z,2.30
2018-01-12T03:52:29.512Z,2.30
2018-01-12T03:54:57.051Z,2.30
2018-01-12T03:57:24.574Z,2.30
2018-01-12T03:59:52.121Z,2.30
2018-01-12T04:02:19.644Z,2.30
2018-01-12T04:04:47.185Z,2.30
2018-01-12T04:07:14.697Z,2.30
2018-01-12T04:09:42.233Z,2.30
2018-01-12T04:12:10.520Z,2.30
2018-01-12T04:14:38.838Z,2.30
2018-01-12T04:17:06.372Z,2.30
2018-01-12T04:19:33.890Z,2.30
2018-01-12T04:22:01.422Z,2.30
2018-01-12T04:24:28.948Z,2.30
2018-01-12T04:26:56.487Z,2.30
2018-01-12T04:29:24.769Z,2.20
2018-01-12T04:31:52.300Z,2.20
2018-01-12T04:34:19.817Z,2.30
2018-01-12T04:36:47.358Z,2.30
2018-01-12T04:39:14.896Z,2.20
2018-01-12T04:41:43.200Z,2.30
2018-01-12T04:44:10.725Z,2.30
2018-01-12T04:46:39.028Z,2.30
2018-01-12T04:49:06.540Z,2.30
2018-01-12T04:51:34.080Z,2.20
2018-01-12T04:54:01.610Z,2.20
2018-01-12T04:56:29.145Z,2.20
2018-01-12T04:58:56.681Z,2.20
2018-01-12T05:01:24.997Z,2.30
2018-01-12T05:03:52.535Z,2.30
2018-01-12T05:06:20.081Z,2.30
2018-01-12T05:08:48.370Z,2.30
2018-01-12T05:11:16.689Z,2.30
2018-01-12T05:13:44.211Z,2.30
2018-01-12T05:16:11.753Z,2.30
2018-01-12T05:18:40.042Z,2.30
2018-01-12T05:21:07.595Z,2.30
2018-01-12T05:23:35.872Z,2.30
2018-01-12T05:26:03.410Z,2.30
2018-01-12T05:28:30.937Z,2.30
2018-01-12T05:30:58.500Z,2.30
2018-01-12T05:33:26.064Z,2.30
2018-01-12T05:35:53.656Z,2.30
2018-01-12T05:38:21.157Z,2.30
2018-01-12T05:40:48.704Z,2.30
2018-01-12T05:43:16.219Z,2.30
2018-01-12T05:45:43.756Z,2.30
2018-01-12T05:48:11.277Z,2.30
2018-01-12T05:50:38.816Z,2.30
2018-01-12T05:53:06.337Z,2.30
2018-01-12T05:55:33.876Z,2.30
2018-01-12T05:58:01.396Z,2.20
2018-01-12T06:00:28.930Z,2.30
2018-01-12T06:03:09.062Z,2.20
2018-01-12T06:05:48.465Z,2.20
2018-01-12T06:08:16.752Z,2.20
2018-01-12T06:10:44.293Z,2.20
2018-01-12T06:13:11.808Z,2.20
2018-01-12T06:15:40.084Z,2.20
2018-01-12T06:18:08.394Z,2.20
2018-01-12T06:20:35.926Z,2.20
2018-01-12T06:23:04.237Z,2.20
2018-01-12T06:25:31.766Z,2.20
2018-01-12T06:28:00.090Z,2.20
2018-01-12T06:30:27.621Z,2.20
2018-01-12T06:32:55.152Z,2.20
2018-01-12T06:35:23.432Z,2.20
2018-01-12T06:37:51.857Z,2.20
2018-01-12T06:40:19.375Z,2.20
2018-01-12T06:42:47.682Z,2.10
2018-01-12T06:45:15.208Z,2.10
2018-01-12T06:47:43.513Z,2.20
2018-01-12T06:50:11.036Z,2.10
2018-01-12T06:52:39.347Z,2.20
2018-01-12T06:55:06.860Z,2.20
2018-01-12T06:57:35.173Z,2.20
2018-01-12T07:00:02.748Z,2.20
2018-01-12T07:02:30.312Z,2.20
2018-01-12T07:04:57.841Z,2.20
2018-01-12T07:07:25.376Z,2.30
2018-01-12T07:09:53.656Z,2.30
2018-01-12T07:12:21.956Z,2.30
2018-01-12T07:14:49.474Z,2.30
2018-01-12T07:17:17.792Z,2.30
2018-01-12T07:19:45.326Z,2.30
2018-01-12T07:22:25.475Z,2.30
2018-01-12T07:24:53.764Z,2.30
2018-01-12T07:27:21.312Z,2.30
2018-01-12T07:29:49.608Z,2.40
2018-01-12T07:32:17.155Z,2.30
2018-01-12T07:34:45.446Z,2.40
2018-01-12T07:37:12.982Z,2.30
2018-01-12T07:39:41.264Z,2.40
2018-01-12T07:42:08.808Z,2.40
2018-01-12T07:44:37.096Z,2.40
2018-01-12T07:47:04.639Z,2.40
2018-01-12T07:49:32.924Z,2.40
2018-01-12T07:52:01.231Z,2.40
2018-01-12T07:54:28.751Z,2.40
2018-01-12T07:56:57.064Z,2.50
2018-01-12T07:59:24.583Z,2.50
2018-01-12T08:05:03.552Z,2.50
2018-01-12T08:07:31.088Z,2.50
2018-01-12T08:09:59.392Z,2.60
2018-01-12T08:12:26.928Z,2.60
2018-01-12T08:14:55.203Z,2.60
2018-01-12T08:17:23.509Z,2.70
2018-01-12T08:19:51.029Z,2.70
2018-01-12T08:22:19.340Z,2.80
2018-01-12T08:24:46.853Z,2.80
2018-01-12T08:27:14.392Z,2.80
2018-01-12T08:29:41.917Z,2.90
2018-01-12T08:32:09.456Z,2.90
2018-01-12T08:34:37.744Z,3.00
2018-01-12T08:37:05.277Z,3.00
2018-01-12T08:39:33.560Z,3.10
2018-01-12T08:42:01.871Z,3.20
2018-01-12T08:44:29.388Z,3.20
2018-01-12T08:46:57.682Z,3.30
2018-01-12T08:49:25.219Z,3.30
2018-01-12T08:51:52.727Z,3.40
2018-01-12T08:54:20.276Z,3.50
2018-01-12T08:56:47.796Z,3.60
2018-01-12T08:59:16.103Z,3.60
2018-01-12T09:01:43.617Z,3.60
2018-01-12T09:04:11.153Z,3.60
2018-01-12T09:06:38.663Z,3.50
2018-01-12T09:09:06.196Z,3.60
2018-01-12T09:11:33.713Z,3.60
2018-01-12T09:14:12.977Z,3.70
2018-01-12T09:16:57.590Z,3.80
2018-01-12T09:19:40.653Z,3.90
2018-01-12T09:22:10.000Z,3.90
2018-01-12T09:24:45.138Z,4.00
2018-01-12T09:27:12.692Z,4.20
2018-01-12T09:29:40.231Z,4.30
2018-01-12T09:32:14.495Z,4.70
2018-01-12T09:35:00.441Z,4.60
2018-01-12T09:37:29.667Z,4.90
2018-01-12T09:40:09.280Z,4.90
2018-01-12T09:42:37.121Z,5.00
2018-01-12T09:45:04.837Z,5.00
2018-01-12T09:47:40.328Z,5.00
2018-01-12T09:50:08.687Z,4.80
2018-01-12T09:52:36.459Z,4.80
2018-01-12T09:55:04.054Z,4.70
2018-01-12T09:57:32.512Z,4.70
2018-01-12T10:00:00.264Z,4.70
2018-01-12T10:02:27.790Z,4.70
2018-01-12T10:04:55.396Z,4.80
2018-01-12T10:07:23.696Z,4.60
2018-01-12T10:09:51.268Z,4.60
2018-01-12T10:12:18.793Z,4.60
2018-01-12T10:14:46.327Z,4.50
2018-01-12T10:17:13.950Z,4.50
2018-01-12T10:22:58.184Z,4.40
2018-01-12T10:25:26.493Z,4.40
2018-01-12T10:27:54.008Z,4.40
2018-01-12T10:33:31.961Z,4.50
2018-01-12T10:35:59.532Z,4.60
2018-01-12T10:38:27.089Z,4.50
2018-01-12T10:40:54.627Z,4.40
2018-01-12T10:43:22.191Z,4.60
2018-01-12T10:45:55.253Z,4.80
2018-01-12T10:48:35.530Z,4.90
2018-01-12T10:51:13.752Z,4.90
2018-01-12T10:53:41.320Z,5.00
2018-01-12T10:56:09.421Z,5.10
2018-01-12T10:58:37.091Z,5.10
2018-01-12T11:01:09.369Z,4.80
2018-01-12T11:03:37.873Z,4.80
2018-01-12T11:06:05.472Z,4.80
2018-01-12T11:08:33.103Z,4.60
2018-01-12T11:11:00.748Z,4.70
2018-01-12T11:13:28.383Z,4.70
2018-01-12T11:15:56.062Z,4.70
2018-01-12T11:18:23.803Z,4.60
2018-01-12T11:20:52.270Z,4.50
2018-01-12T11:23:19.926Z,4.50
2018-01-12T11:25:47.565Z,4.50
2018-01-12T11:28:15.214Z,4.50
2018-01-12T11:30:42.957Z,4.40
2018-01-12T11:33:10.577Z,4.40
2018-01-12T11:35:38.274Z,4.40
2018-01-12T11:38:06.036Z,4.40
2018-01-12T11:40:33.711Z,4.40
2018-01-12T11:43:01.320Z,4.30
2018-01-12T11:45:29.025Z,4.30
2018-01-12T11:47:56.703Z,4.30
2018-01-12T11:50:24.401Z,4.40
2018-01-12T11:52:52.098Z,4.30
2018-01-12T11:55:19.906Z,4.20
2018-01-12T11:57:47.633Z,4.30
2018-01-12T12:00:15.439Z,4.40
2018-01-12T12:02:43.323Z,4.40
2018-01-12T12:05:10.966Z,4.40
2018-01-12T12:07:38.610Z,4.50
2018-01-12T12:10:06.309Z,4.60
2018-01-12T12:12:34.785Z,4.70
2018-01-12T12:15:02.540Z,4.70
2018-01-12T12:17:30.230Z,4.80
2018-01-12T12:19:58.019Z,4.90
2018-01-12T12:22:25.752Z,5.10
2018-01-12T12:24:53.415Z,5.30
2018-01-12T12:27:21.075Z,5.40
2018-01-12T12:29:48.714Z,5.40
2018-01-12T12:32:16.372Z,5.40
2018-01-12T12:34:44.072Z,5.40
2018-01-12T12:37:12.493Z,5.30
2018-01-12T12:39:40.203Z,5.30
2018-01-12T12:42:07.858Z,5.20
2018-01-12T12:44:35.552Z,5.20
2018-01-12T12:47:03.386Z,5.00
2018-01-12T12:49:31.129Z,5.20
2018-01-12T12:51:58.775Z,5.50
2018-01-12T12:54:26.493Z,5.80
2018-01-12T12:56:54.272Z,6.10
2018-01-12T12:59:21.967Z,6.10
2018-01-12T13:01:49.729Z,6.40
2018-01-12T13:04:17.421Z,6.50
2018-01-12T13:06:44.969Z,6.80
2018-01-12T13:09:12.516Z,7.00
2018-01-12T13:11:40.042Z,7.10
2018-01-12T13:14:07.595Z,7.10
2018-01-12T13:16:35.889Z,7.40
2018-01-12T13:19:03.448Z,7.40
2018-01-12T13:21:30.984Z,7.20
2018-01-12T13:23:59.295Z,7.00
2018-01-12T13:26:26.832Z,7.00
2018-01-12T13:28:54.399Z,6.90
2018-01-12T13:31:21.927Z,6.60
2018-01-12T13:33:50.241Z,6.40
2018-01-12T13:36:17.772Z,6.40
2018-01-12T13:38:46.071Z,6.20
2018-01-12T13:41:13.615Z,6.20
2018-01-12T13:43:41.152Z,6.30
2018-01-12T13:46:09.469Z,6.10
2018-01-12T13:48:36.989Z,6.10
2018-01-12T13:51:05.308Z,6.10
2018-01-12T13:53:32.850Z,6.00
2018-01-12T13:56:00.396Z,6.20
2018-01-12T13:58:27.931Z,6.30
2018-01-12T14:00:55.468Z,6.40
2018-01-12T14:03:23.004Z,6.50
2018-01-12T14:05:51.353Z,6.50
2018-01-12T14:08:18.891Z,6.60
2018-01-12T14:10:47.212Z,6.50
2018-01-12T14:13:14.770Z,6.50
2018-01-12T14:15:42.305Z,6.70
2018-01-12T14:18:09.819Z,6.50
2018-01-12T14:20:37.361Z,6.60
2018-01-12T14:23:04.884Z,6.40
2018-01-12T14:25:32.458Z,6.40
2018-01-12T14:28:00.770Z,6.30
2018-01-12T14:30:28.362Z,6.30
2018-01-12T14:32:56.656Z,6.10
2018-01-12T14:35:24.196Z,6.10
2018-01-12T14:37:51.746Z,6.10
2018-01-12T14:40:19.288Z,6.00
2018-01-12T14:42:46.823Z,5.90
2018-01-12T14:45:14.368Z,5.80
2018-01-12T14:47:41.898Z,5.80
2018-01-12T14:50:09.457Z,5.60
2018-01-12T14:52:36.992Z,5.50
2018-01-12T14:55:04.554Z,5.40
2018-01-12T14:57:32.104Z,5.20
2018-01-12T14:59:59.645Z,5.00
2018-01-12T15:02:27.169Z,4.80
2018-01-12T15:04:54.723Z,4.80
2018-01-12T15:07:22.244Z,4.70
2018-01-12T15:09:49.787Z,4.60
2018-01-12T15:12:17.308Z,4.60
2018-01-12T15:14:44.857Z,4.50
2018-01-12T15:17:12.390Z,4.40
2018-01-12T15:19:39.955Z,4.40
2018-01-12T15:22:08.242Z,4.20
2018-01-12T15:24:35.823Z,4.10
2018-01-12T15:27:03.352Z,4.00
2018-01-12T15:29:30.892Z,4.00
2018-01-12T15:31:58.425Z,4.00
2018-01-12T15:34:25.988Z,4.00
2018-01-12T15:36:53.508Z,3.90
2018-01-12T15:39:21.036Z,4.00
2018-01-12T15:41:49.343Z,3.80
2018-01-12T15:44:16.865Z,3.80
2018-01-12T15:46:45.185Z,3.70
2018-01-12T15:49:12.712Z,3.70
2018-01-12T15:51:40.256Z,3.70
2018-01-12T15:54:08.547Z,3.60
2018-01-12T15:56:36.108Z,3.60
2018-01-12T15:59:03.636Z,3.60
2018-01-12T16:01:31.181Z,3.60
2018-01-12T16:03:58.710Z,3.60
2018-01-12T16:06:26.251Z,3.50
2018-01-12T16:08:53.778Z,3.50
2018-01-12T16:11:21.345Z,3.40
2018-01-12T16:13:49.674Z,3.40
2018-01-12T16:16:17.226Z,3.30
2018-01-12T16:18:44.759Z,3.30
2018-01-12T16:21:12.307Z,3.30
2018-01-12T16:23:39.848Z,3.30
2018-01-12T16:26:08.160Z,3.20
2018-01-12T16:28:35.689Z,3.20
2018-01-12T16:31:03.988Z,3.20
2018-01-12T16:33:31.526Z,3.20
2018-01-12T16:35:59.086Z,3.20
2018-01-12T16:38:27.385Z,3.30
2018-01-12T16:40:54.936Z,3.20
2018-01-12T16:43:22.464Z,3.30
2018-01-12T16:45:50.855Z,3.30
2018-01-12T16:48:18.398Z,3.30
2018-01-12T16:50:46.714Z,3.30
2018-01-12T16:53:14.256Z,3.20
2018-01-12T16:55:41.808Z,3.20
2018-01-12T16:58:10.113Z,3.20
2018-01-12T17:00:37.660Z,3.20
2018-01-12T17:03:05.192Z,3.30
2018-01-12T17:05:33.545Z,3.20
2018-01-12T17:08:01.101Z,3.20
2018-01-12T17:10:28.757Z,3.30
2018-01-12T17:12:56.287Z,3.30
2018-01-12T17:15:23.846Z,3.30
2018-01-12T17:17:51.393Z,3.20
2018-01-12T17:20:18.944Z,3.30
2018-01-12T17:22:46.479Z,3.20
2018-01-12T17:25:14.794Z,3.30
2018-01-12T17:27:42.316Z,3.20
2018-01-12T17:30:10.687Z,3.20
2018-01-12T17:32:38.995Z,3.20
2018-01-12T17:35:06.542Z,3.20
2018-01-12T17:37:34.078Z,3.20
2018-01-12T17:40:02.377Z,3.10
2018-01-12T17:42:29.924Z,3.10
2018-01-12T17:44:58.220Z,3.10
2018-01-12T17:47:25.769Z,3.00
2018-01-12T17:49:53.308Z,3.10
2018-01-12T17:52:21.616Z,3.00
2018-01-12T17:54:49.201Z,2.90
2018-01-12T17:57:16.720Z,3.00
2018-01-12T17:59:44.241Z,3.00
2018-01-12T18:02:11.788Z,3.00
2018-01-12T18:04:39.313Z,3.00
2018-01-12T18:07:06.893Z,3.00
2018-01-12T18:09:34.462Z,3.00
2018-01-12T18:12:02.816Z,3.00
2018-01-12T18:14:30.360Z,2.90
2018-01-12T18:16:57.905Z,3.00
2018-01-12T18:19:25.437Z,3.00
2018-01-12T18:21:53.037Z,3.00
2018-01-12T18:24:20.564Z,3.00
2018-01-12T18:26:48.909Z,3.00
2018-01-12T18:29:16.437Z,3.00
2018-01-12T18:31:43.983Z,3.00
2018-01-12T18:34:11.546Z,3.00
2018-01-12T18:36:39.104Z,3.00
2018-01-12T18:39:07.133Z,3.00
2018-01-12T18:41:34.680Z,3.00
2018-01-12T18:44:02.258Z,3.10
2018-01-12T18:46:30.567Z,3.10
2018-01-12T18:48:58.125Z,3.00
2018-01-12T18:51:25.675Z,3.10
2018-01-12T18:53:53.209Z,3.00
2018-01-12T18:56:21.526Z,3.10
2018-01-12T18:58:49.059Z,3.10
2018-01-12T19:01:17.372Z,3.00
2018-01-12T19:03:44.892Z,3.00
2018-01-12T19:06:13.338Z,3.00
2018-01-12T19:08:40.863Z,3.00
2018-01-12T19:11:08.410Z,3.00
2018-01-12T19:13:35.937Z,3.00
2018-01-12T19:16:04.252Z,3.10
2018-01-12T19:18:31.789Z,3.10
2018-01-12T19:20:59.339Z,3.20
2018-01-12T19:23:27.649Z,3.20
2018-01-12T19:25:55.233Z,3.20
2018-01-12T19:28:22.756Z,3.20
2018-01-12T19:30:50.304Z,3.20
2018-01-12T19:33:17.895Z,3.20
2018-01-12T19:35:45.426Z,3.20
2018-01-12T19:38:12.971Z,3.20
2018-01-12T19:40:40.496Z,3.20
2018-01-12T19:43:08.087Z,3.20
2018-01-12T19:45:36.381Z,3.20
2018-01-12T19:48:03.929Z,3.20
2018-01-12T19:50:31.453Z,3.20
2018-01-12T19:52:58.996Z,3.20
2018-01-12T19:55:26.526Z,3.10
2018-01-12T19:57:54.074Z,3.20
2018-01-12T20:00:21.604Z,3.20
2018-01-12T20:02:50.014Z,3.20
2018-01-12T20:05:17.541Z,3.20
2018-01-12T20:07:45.892Z,3.20
2018-01-12T20:10:13.430Z,3.20
2018-01-12T20:12:41.010Z,3.20
2018-01-12T20:15:08.572Z,3.20
2018-01-12T20:17:36.123Z,3.20
2018-01-12T20:20:03.834Z,3.20
2018-01-12T20:22:31.388Z,3.20
2018-01-12T20:24:58.914Z,3.10
2018-01-12T20:27:26.521Z,3.10
2018-01-12T20:29:54.045Z,3.10
2018-01-12T20:32:22.360Z,3.10
2018-01-12T20:34:49.940Z,3.10
2018-01-12T20:37:17.477Z,3.10
2018-01-12T20:39:45.066Z,3.10
2018-01-12T20:42:12.651Z,3.10
2018-01-12T20:44:40.175Z,3.10
2018-01-12T20:47:07.728Z,3.10
2018-01-12T20:49:35.295Z,3.10
2018-01-12T20:52:02.886Z,3.10
2018-01-12T20:54:30.469Z,3.10
2018-01-12T20:56:58.017Z,3.10
2018-01-12T20:59:25.652Z,3.10
2018-01-12T21:01:53.205Z,3.10
2018-01-12T21:04:20.733Z,3.10
2018-01-12T21:06:48.331Z,3.10
2018-01-12T21:09:15.859Z,3.10
2018-01-12T21:20:23.552Z,3.00
2018-01-12T21:22:51.864Z,3.00
2018-01-12T21:25:19.451Z,3.00
2018-01-12T21:27:47.001Z,3.10
2018-01-12T21:30:14.525Z,3.10
2018-01-12T21:32:42.067Z,3.10
2018-01-12T21:35:10.410Z,3.10
2018-01-12T21:37:38.018Z,3.10
2018-01-12T21:40:05.544Z,3.10
2018-01-12T21:42:33.087Z,3.10
2018-01-12T21:45:00.616Z,3.10
2018-01-12T21:47:28.169Z,3.10
2018-01-12T21:49:55.696Z,3.10
2018-01-12T21:52:24.025Z,3.10
2018-01-12T21:54:51.591Z,3.10
2018-01-12T21:57:19.139Z,3.10
2018-01-12T21:59:46.677Z,3.10
2018-01-12T22:02:14.226Z,3.10
2018-01-12T22:04:41.767Z,3.10
2018-01-12T22:07:10.080Z,3.10
2018-01-12T22:09:37.613Z,3.10
2018-01-12T22:12:05.152Z,3.10
2018-01-12T22:14:33.452Z,3.10
2018-01-12T22:17:01.038Z,3.10
2018-01-12T22:19:28.558Z,3.10
2018-01-12T22:21:56.872Z,3.00
2018-01-12T22:24:24.416Z,2.90
2018-01-12T22:26:51.986Z,2.80
2018-01-12T22:29:19.545Z,2.60
2018-01-12T22:31:47.076Z,2.40
2018-01-12T22:34:14.620Z,2.30
2018-01-12T22:36:42.913Z,2.00
2018-01-12T22:39:10.504Z,2.00
2018-01-12T22:41:38.026Z,1.90
2018-01-12T22:44:05.580Z,1.80
2018-01-12T22:46:33.926Z,1.50
2018-01-12T22:49:01.472Z,1.50
2018-01-12T22:51:29.003Z,1.40
2018-01-12T22:53:56.557Z,1.30
2018-01-12T22:56:24.090Z,1.30
2018-01-12T22:58:52.413Z,1.00
2018-01-12T23:01:19.939Z,1.00
2018-01-12T23:03:47.487Z,1.00
2018-01-12T23:06:15.024Z,0.90
2018-01-12T23:08:42.572Z,0.80
2018-01-12T23:11:10.105Z,0.70
2018-01-12T23:13:37.659Z,0.70
2018-01-12T23:16:05.197Z,0.70
2018-01-12T23:18:32.786Z,0.60
2018-01-12T23:21:00.308Z,0.70
2018-01-12T23:23:27.861Z,0.70
2018-01-12T23:25:55.391Z,0.70
2018-01-12T23:28:23.696Z,0.90
2018-01-12T23:30:51.228Z,0.90
2018-01-12T23:33:19.550Z,1.00
2018-01-12T23:35:47.077Z,1.00
2018-01-12T23:38:15.404Z,1.10
2018-01-12T23:40:43.928Z,1.10
2018-01-12T23:43:12.240Z,1.20
2018-01-12T23:45:39.771Z,1.20
2018-01-12T23:48:08.080Z,1.30
2018-01-12T23:50:35.608Z,1.20
2018-01-12T23:53:03.176Z,1.30
2018-01-12T23:55:30.695Z,1.30
2018-01-12T23:57:58.244Z,1.30
